createdAt,value
2023-02-04T00:00:32.603Z,6.60
2023-02-04T00:01:32.210Z,6.40
2023-02-04T00:02:32.254Z,6.50
2023-02-04T00:03:32.135Z,6.90
2023-02-04T00:04:32.107Z,6.20
2023-02-04T00:05:32.148Z,6.70
2023-02-04T00:06:32.060Z,6.40
2023-02-04T00:07:32.028Z,6.50
2023-02-04T00:08:31.999Z,6.20
2023-02-04T00:09:31.989Z,6.40
2023-02-04T00:10:32.451Z,5.90
2023-02-04T00:11:31.924Z,6.50
2023-02-04T00:12:31.899Z,6.20
2023-02-04T00:13:31.873Z,6.30
2023-02-04T00:14:31.849Z,6.40
2023-02-04T00:15:31.848Z,6.90
2023-02-04T00:16:31.847Z,6.50
2023-02-04T00:17:31.789Z,6.10
2023-02-04T00:18:31.736Z,6.50
2023-02-04T00:19:31.714Z,7.30
2023-02-04T00:20:32.078Z,7.30
2023-02-04T00:21:31.663Z,7.10
2023-02-04T00:22:31.630Z,6.90
2023-02-04T00:23:31.605Z,6.70
2023-02-04T00:24:31.589Z,5.90
2023-02-04T00:25:31.562Z,6.00
2023-02-04T00:26:31.525Z,6.40
2023-02-04T00:27:31.504Z,6.10
2023-02-04T00:28:31.467Z,6.00
2023-02-04T00:29:31.446Z,7.00
2023-02-04T00:30:31.880Z,6.70
2023-02-04T00:31:31.505Z,7.70
2023-02-04T00:32:31.367Z,6.50
2023-02-04T00:33:31.363Z,6.80
2023-02-04T00:34:31.319Z,5.60
2023-02-04T00:35:31.289Z,7.40
2023-02-04T00:36:31.256Z,7.00
2023-02-04T00:37:31.240Z,6.60
2023-02-04T00:38:31.207Z,5.60
2023-02-04T00:39:31.184Z,6.00
2023-02-04T00:40:31.512Z,6.20
2023-02-04T00:41:31.132Z,7.10
2023-02-04T00:42:31.102Z,5.90
2023-02-04T00:43:31.075Z,6.00
2023-02-04T00:44:31.050Z,6.30
2023-02-04T00:45:31.111Z,6.40
2023-02-04T00:46:30.991Z,6.50
2023-02-04T00:47:30.972Z,6.80
2023-02-04T00:48:30.946Z,7.00
2023-02-04T00:49:30.938Z,5.90
2023-02-04T00:50:31.278Z,7.70
2023-02-04T00:51:30.862Z,7.70
2023-02-04T00:52:30.838Z,7.10
2023-02-04T00:53:30.814Z,5.90
2023-02-04T00:54:30.781Z,7.50
2023-02-04T00:55:30.759Z,7.60
2023-02-04T00:56:30.730Z,7.20
2023-02-04T00:57:30.705Z,6.60
2023-02-04T00:58:30.675Z,5.80
2023-02-04T00:59:30.650Z,7.00
2023-02-04T01:00:30.924Z,6.50
2023-02-04T01:01:30.599Z,7.20
2023-02-04T01:02:30.659Z,8.40
2023-02-04T01:03:30.545Z,8.00
2023-02-04T01:04:30.519Z,6.80
2023-02-04T01:05:30.520Z,6.00
2023-02-04T01:06:30.467Z,7.30
2023-02-04T01:07:30.541Z,6.40
2023-02-04T01:08:30.412Z,6.50
2023-02-04T01:09:30.388Z,6.70
2023-02-04T01:10:30.901Z,6.80
2023-02-04T01:11:30.337Z,6.90
2023-02-04T01:12:30.309Z,6.70
2023-02-04T01:13:30.281Z,6.30
2023-02-04T01:14:30.259Z,6.80
2023-02-04T01:15:30.233Z,7.50
2023-02-04T01:16:30.276Z,6.00
2023-02-04T01:17:30.179Z,5.90
2023-02-04T01:18:30.152Z,6.80
2023-02-04T01:19:30.126Z,5.80
2023-02-04T01:20:30.449Z,7.90
2023-02-04T01:21:30.092Z,6.40
2023-02-04T01:22:30.044Z,6.20
2023-02-04T01:23:30.027Z,6.20
2023-02-04T01:24:29.992Z,8.30
2023-02-04T01:25:29.965Z,7.80
2023-02-04T01:26:29.942Z,7.00
2023-02-04T01:27:29.917Z,6.90
2023-02-04T01:28:29.884Z,6.70
2023-02-04T01:29:29.865Z,6.10
2023-02-04T01:30:30.282Z,6.40
2023-02-04T01:31:29.874Z,6.90
2023-02-04T01:32:29.777Z,6.40
2023-02-04T01:33:29.744Z,6.60
2023-02-04T01:34:29.724Z,6.70
2023-02-04T01:35:29.710Z,6.70
2023-02-04T01:36:29.675Z,6.40
2023-02-04T01:37:29.682Z,7.20
2023-02-04T01:38:29.616Z,6.70
2023-02-04T01:39:29.594Z,6.80
2023-02-04T01:40:30.016Z,6.70
2023-02-04T01:41:29.551Z,5.40
2023-02-04T01:42:29.525Z,6.40
2023-02-04T01:43:29.495Z,6.60
2023-02-04T01:44:29.464Z,6.20
2023-02-04T01:45:29.432Z,6.30
2023-02-04T01:46:29.407Z,6.50
2023-02-04T01:47:29.380Z,6.80
2023-02-04T01:48:29.351Z,6.40
2023-02-04T01:49:29.329Z,7.20
2023-02-04T01:50:29.740Z,6.70
2023-02-04T01:51:29.288Z,7.00
2023-02-04T01:52:29.248Z,6.30
2023-02-04T01:53:29.242Z,6.40
2023-02-04T01:54:29.223Z,6.90
2023-02-04T01:55:29.181Z,6.10
2023-02-04T01:56:29.142Z,6.80
2023-02-04T01:57:29.112Z,7.60
2023-02-04T01:58:29.085Z,7.10
2023-02-04T01:59:29.065Z,6.60
2023-02-04T02:00:29.353Z,6.90
2023-02-04T02:01:29.094Z,7.70
2023-02-04T02:02:29.020Z,6.60
2023-02-04T02:03:28.958Z,8.00
2023-02-04T02:04:28.931Z,8.70
2023-02-04T02:05:28.912Z,6.90
2023-02-04T02:06:28.869Z,7.10
2023-02-04T02:07:28.855Z,6.50
2023-02-04T02:08:28.818Z,6.00
2023-02-04T02:09:28.810Z,7.40
2023-02-04T02:10:29.194Z,6.40
2023-02-04T02:11:28.744Z,7.70
2023-02-04T02:12:28.717Z,6.70
2023-02-04T02:13:28.686Z,6.20
2023-02-04T02:14:28.655Z,8.00
2023-02-04T02:15:28.644Z,6.90
2023-02-04T02:16:28.653Z,5.70
2023-02-04T02:17:28.586Z,6.10
2023-02-04T02:18:28.557Z,6.00
2023-02-04T02:19:28.531Z,7.40
2023-02-04T02:20:28.664Z,6.10
2023-02-04T02:21:28.478Z,6.70
2023-02-04T02:22:28.458Z,7.30
2023-02-04T02:23:28.426Z,7.30
2023-02-04T02:24:28.416Z,6.50
2023-02-04T02:25:28.385Z,6.10
2023-02-04T02:26:28.356Z,7.80
2023-02-04T02:27:28.319Z,6.70
2023-02-04T02:28:28.286Z,6.40
2023-02-04T02:29:28.263Z,5.90
2023-02-04T02:30:28.363Z,8.90
2023-02-04T02:31:28.355Z,6.30
2023-02-04T02:32:28.191Z,6.60
2023-02-04T02:33:28.152Z,6.80
2023-02-04T02:34:28.132Z,7.60
2023-02-04T02:35:28.101Z,7.00
2023-02-04T02:36:28.072Z,7.90
2023-02-04T02:37:28.047Z,7.20
2023-02-04T02:38:28.022Z,6.00
2023-02-04T02:39:27.998Z,6.50
2023-02-04T02:40:28.023Z,7.50
2023-02-04T02:41:27.965Z,6.30
2023-02-04T02:42:27.915Z,6.80
2023-02-04T02:43:27.894Z,7.30
2023-02-04T02:44:27.866Z,6.30
2023-02-04T02:45:27.830Z,7.30
2023-02-04T02:46:27.835Z,6.70
2023-02-04T02:47:27.781Z,7.10
2023-02-04T02:48:27.827Z,6.40
2023-02-04T02:49:27.726Z,7.00
2023-02-04T02:50:27.698Z,6.30
2023-02-04T02:51:27.667Z,7.50
2023-02-04T02:52:27.646Z,6.60
2023-02-04T02:53:27.636Z,7.10
2023-02-04T02:54:27.598Z,6.60
2023-02-04T02:55:27.565Z,6.30
2023-02-04T02:56:27.541Z,7.40
2023-02-04T02:57:27.528Z,7.70
2023-02-04T02:58:27.504Z,7.10
2023-02-04T02:59:27.474Z,6.50
2023-02-04T03:00:27.450Z,6.80
2023-02-04T03:01:27.529Z,7.30
2023-02-04T03:02:27.446Z,5.90
2023-02-04T03:03:27.425Z,7.00
2023-02-04T03:04:27.323Z,7.30
2023-02-04T03:05:27.292Z,7.00
2023-02-04T03:06:27.269Z,7.40
2023-02-04T03:07:27.246Z,7.30
2023-02-04T03:08:27.231Z,6.40
2023-02-04T03:09:27.192Z,6.50
2023-02-04T03:10:27.170Z,7.60
2023-02-04T03:11:27.138Z,6.10
2023-02-04T03:12:27.118Z,7.00
2023-02-04T03:13:27.102Z,7.40
2023-02-04T03:14:27.064Z,7.10
2023-02-04T03:15:27.178Z,7.50
2023-02-04T03:16:27.008Z,7.70
2023-02-04T03:17:26.973Z,6.80
2023-02-04T03:18:26.951Z,7.40
2023-02-04T03:19:26.924Z,7.10
2023-02-04T03:20:26.896Z,7.80
2023-02-04T03:21:26.868Z,6.70
2023-02-04T03:22:26.877Z,8.10
2023-02-04T03:23:26.820Z,7.80
2023-02-04T03:24:26.798Z,7.20
2023-02-04T03:25:26.759Z,7.70
2023-02-04T03:26:26.737Z,8.00
2023-02-04T03:27:26.714Z,7.00
2023-02-04T03:28:26.687Z,8.60
2023-02-04T03:29:28.412Z,7.00
2023-02-04T03:30:26.641Z,7.80
2023-02-04T03:31:26.739Z,7.90
2023-02-04T03:32:26.585Z,7.00
2023-02-04T03:33:26.554Z,6.40
2023-02-04T03:34:26.530Z,7.40
2023-02-04T03:35:26.502Z,5.40
2023-02-04T03:36:26.476Z,8.20
2023-02-04T03:37:26.453Z,8.40
2023-02-04T03:38:26.426Z,6.90
2023-02-04T03:39:26.397Z,7.40
2023-02-04T03:40:26.373Z,8.90
2023-02-04T03:41:26.341Z,7.70
2023-02-04T03:42:26.322Z,8.50
2023-02-04T03:43:26.288Z,7.80
2023-02-04T03:44:26.265Z,7.00
2023-02-04T03:45:28.512Z,7.50
2023-02-04T03:46:26.279Z,6.40
2023-02-04T03:47:26.183Z,7.70
2023-02-04T03:48:26.171Z,8.00
2023-02-04T03:49:26.129Z,7.40
2023-02-04T03:50:26.109Z,7.50
2023-02-04T03:51:26.076Z,6.90
2023-02-04T03:52:26.049Z,8.20
2023-02-04T03:53:26.021Z,8.10
2023-02-04T03:54:26.001Z,7.80
2023-02-04T03:55:25.971Z,7.40
2023-02-04T03:56:25.955Z,7.20
2023-02-04T03:57:25.926Z,8.40
2023-02-04T03:58:25.899Z,8.30
2023-02-04T03:59:25.863Z,7.00
2023-02-04T04:00:25.841Z,7.70
2023-02-04T04:01:25.899Z,7.00
2023-02-04T04:02:25.818Z,8.30
2023-02-04T04:03:25.762Z,7.60
2023-02-04T04:04:25.748Z,7.60
2023-02-04T04:05:25.706Z,6.80
2023-02-04T04:06:25.690Z,6.90
2023-02-04T04:07:25.658Z,8.00
2023-02-04T04:08:25.650Z,6.50
2023-02-04T04:09:25.604Z,8.20
2023-02-04T04:10:25.575Z,7.30
2023-02-04T04:11:25.553Z,7.50
2023-02-04T04:12:25.521Z,7.50
2023-02-04T04:13:25.494Z,7.30
2023-02-04T04:14:25.474Z,7.20
2023-02-04T04:15:25.441Z,6.50
2023-02-04T04:16:25.420Z,7.10
2023-02-04T04:17:25.417Z,7.70
2023-02-04T04:18:25.366Z,8.50
2023-02-04T04:19:25.342Z,7.40
2023-02-04T04:20:25.323Z,5.90
2023-02-04T04:21:25.284Z,6.70
2023-02-04T04:22:25.265Z,6.70
2023-02-04T04:23:25.231Z,6.70
2023-02-04T04:24:25.205Z,6.00
2023-02-04T04:25:25.182Z,6.90
2023-02-04T04:26:25.160Z,7.50
2023-02-04T04:27:25.133Z,7.30
2023-02-04T04:28:25.121Z,7.30
2023-02-04T04:29:25.073Z,6.50
2023-02-04T04:30:25.059Z,7.10
2023-02-04T04:31:25.133Z,7.60
2023-02-04T04:32:24.997Z,7.60
2023-02-04T04:33:24.982Z,7.70
2023-02-04T04:34:24.941Z,6.30
2023-02-04T04:35:24.908Z,6.80
2023-02-04T04:36:24.907Z,7.30
2023-02-04T04:37:24.854Z,6.30
2023-02-04T04:38:24.836Z,6.90
2023-02-04T04:39:24.800Z,7.00
2023-02-04T04:40:24.777Z,7.20
2023-02-04T04:41:24.751Z,6.60
2023-02-04T04:42:24.733Z,7.50
2023-02-04T04:43:24.699Z,7.40
2023-02-04T04:44:24.674Z,7.00
2023-02-04T04:45:24.639Z,7.40
2023-02-04T04:46:24.638Z,6.90
2023-02-04T04:47:24.603Z,7.10
2023-02-04T04:48:24.564Z,6.70
2023-02-04T04:49:24.564Z,6.20
2023-02-04T04:50:24.509Z,6.70
2023-02-04T04:51:24.484Z,6.80
2023-02-04T04:52:24.469Z,7.00
2023-02-04T04:53:24.424Z,6.70
2023-02-04T04:54:24.411Z,6.40
2023-02-04T04:55:24.371Z,6.30
2023-02-04T04:56:24.350Z,6.10
2023-02-04T04:57:24.319Z,6.10
2023-02-04T04:58:24.298Z,6.20
2023-02-04T04:59:24.264Z,6.70
2023-02-04T05:00:24.250Z,7.50
2023-02-04T05:01:24.214Z,7.40
2023-02-04T05:02:24.192Z,6.50
2023-02-04T05:03:24.165Z,5.70
2023-02-04T05:04:24.148Z,6.70
2023-02-04T05:05:24.140Z,6.50
2023-02-04T05:06:24.086Z,7.20
2023-02-04T05:07:24.062Z,6.50
2023-02-04T05:08:24.055Z,7.30
2023-02-04T05:09:24.020Z,6.40
2023-02-04T05:10:23.984Z,8.10
2023-02-04T05:11:23.958Z,6.70
2023-02-04T05:12:23.939Z,7.20
2023-02-04T05:13:23.910Z,7.40
2023-02-04T05:14:23.880Z,9.00
2023-02-04T05:15:23.852Z,9.50
2023-02-04T05:16:23.949Z,7.90
2023-02-04T05:17:23.803Z,10.40
2023-02-04T05:18:23.778Z,13.00
2023-02-04T05:19:23.747Z,10.00
2023-02-04T05:20:23.723Z,7.80
2023-02-04T05:21:23.716Z,6.40
2023-02-04T05:22:23.675Z,6.40
2023-02-04T05:23:23.648Z,6.30
2023-02-04T05:24:23.619Z,6.70
2023-02-04T05:25:23.594Z,6.30
2023-02-04T05:26:30.283Z,6.70
2023-02-04T05:27:23.546Z,7.40
2023-02-04T05:28:23.518Z,7.60
2023-02-04T05:29:23.492Z,6.60
2023-02-04T05:30:23.469Z,7.30
2023-02-04T05:31:23.579Z,7.30
2023-02-04T05:32:23.415Z,7.50
2023-02-04T05:33:23.379Z,6.10
2023-02-04T05:34:23.361Z,7.10
2023-02-04T05:35:23.327Z,5.10
2023-02-04T05:36:23.301Z,6.30
2023-02-04T05:37:23.298Z,6.70
2023-02-04T05:38:23.256Z,6.50
2023-02-04T05:39:23.236Z,6.60
2023-02-04T05:40:23.202Z,6.20
2023-02-04T05:41:23.190Z,5.80
2023-02-04T05:42:23.150Z,6.40
2023-02-04T05:43:23.119Z,6.70
2023-02-04T05:44:23.151Z,7.20
2023-02-04T05:45:23.155Z,7.20
2023-02-04T05:46:23.046Z,6.50
2023-02-04T05:47:23.013Z,6.60
2023-02-04T05:48:22.991Z,6.40
2023-02-04T05:49:22.964Z,6.80
2023-02-04T05:50:22.945Z,6.60
2023-02-04T05:51:22.907Z,8.10
2023-02-04T05:52:22.893Z,7.00
2023-02-04T05:53:23.803Z,7.40
2023-02-04T05:54:22.832Z,7.30
2023-02-04T05:55:22.813Z,7.30
2023-02-04T05:56:22.782Z,7.00
2023-02-04T05:57:22.747Z,6.70
2023-02-04T05:58:22.725Z,7.60
2023-02-04T05:59:22.711Z,7.80
2023-02-04T06:00:22.687Z,7.10
2023-02-04T06:01:22.646Z,7.50
2023-02-04T06:02:22.624Z,7.20
2023-02-04T06:03:22.621Z,6.70
2023-02-04T06:04:22.605Z,7.10
2023-02-04T06:05:22.545Z,7.60
2023-02-04T06:06:22.517Z,7.90
2023-02-04T06:07:22.495Z,5.50
2023-02-04T06:08:22.465Z,5.90
2023-02-04T06:09:22.459Z,6.60
2023-02-04T06:10:22.412Z,5.70
2023-02-04T06:11:22.383Z,6.30
2023-02-04T06:12:22.366Z,6.40
2023-02-04T06:13:22.332Z,5.50
2023-02-04T06:14:22.314Z,7.30
2023-02-04T06:15:22.275Z,6.30
2023-02-04T06:16:22.294Z,6.10
2023-02-04T06:17:22.228Z,5.70
2023-02-04T06:18:22.200Z,5.70
2023-02-04T06:19:22.175Z,6.20
2023-02-04T06:20:22.147Z,6.20
2023-02-04T06:21:22.128Z,6.50
2023-02-04T06:22:22.096Z,6.10
2023-02-04T06:23:22.063Z,6.70
2023-02-04T06:24:22.046Z,6.70
2023-02-04T06:25:22.034Z,7.80
2023-02-04T06:26:21.994Z,7.20
2023-02-04T06:27:21.964Z,6.70
2023-02-04T06:28:21.935Z,7.00
2023-02-04T06:29:21.915Z,7.40
2023-02-04T06:30:21.888Z,6.50
2023-02-04T06:31:22.069Z,5.50
2023-02-04T06:32:21.833Z,6.30
2023-02-04T06:33:21.827Z,5.80
2023-02-04T06:34:21.786Z,5.80
2023-02-04T06:35:21.756Z,5.30
2023-02-04T06:36:21.735Z,6.10
2023-02-04T06:37:24.086Z,5.60
2023-02-04T06:38:21.679Z,6.10
2023-02-04T06:39:21.657Z,7.50
2023-02-04T06:40:21.623Z,6.30
2023-02-04T06:41:21.622Z,6.40
2023-02-04T06:42:21.571Z,5.10
2023-02-04T06:43:21.545Z,6.10
2023-02-04T06:44:21.516Z,6.50
2023-02-04T06:45:21.493Z,7.20
2023-02-04T06:46:21.507Z,6.90
2023-02-04T06:47:21.448Z,7.90
2023-02-04T06:48:21.415Z,6.20
2023-02-04T06:49:21.388Z,6.70
2023-02-04T06:50:21.361Z,5.60
2023-02-04T06:51:21.335Z,5.70
2023-02-04T06:52:21.312Z,5.80
2023-02-04T06:53:21.285Z,5.70
2023-02-04T06:54:21.253Z,6.10
2023-02-04T06:55:21.233Z,6.90
2023-02-04T06:56:21.200Z,5.60
2023-02-04T06:57:21.217Z,6.00
2023-02-04T06:58:21.158Z,5.80
2023-02-04T06:59:21.135Z,6.60
2023-02-04T07:00:21.105Z,5.70
2023-02-04T07:01:21.131Z,7.00
2023-02-04T07:02:21.060Z,5.90
2023-02-04T07:03:21.019Z,6.50
2023-02-04T07:04:20.996Z,7.90
2023-02-04T07:05:20.974Z,6.00
2023-02-04T07:06:20.944Z,7.00
2023-02-04T07:07:20.925Z,6.90
2023-02-04T07:08:20.897Z,7.30
2023-02-04T07:09:20.864Z,8.20
2023-02-04T07:10:20.848Z,8.00
2023-02-04T07:11:20.820Z,7.80
2023-02-04T07:12:20.789Z,8.00
2023-02-04T07:13:20.786Z,8.20
2023-02-04T07:14:20.734Z,8.70
2023-02-04T07:15:20.719Z,7.80
2023-02-04T07:16:20.684Z,7.00
2023-02-04T07:17:20.670Z,8.30
2023-02-04T07:18:20.627Z,8.10
2023-02-04T07:19:21.320Z,7.70
2023-02-04T07:20:20.583Z,8.50
2023-02-04T07:21:20.547Z,8.00
2023-02-04T07:22:20.525Z,7.50
2023-02-04T07:23:20.500Z,8.30
2023-02-04T07:24:20.470Z,7.70
2023-02-04T07:25:20.448Z,7.70
2023-02-04T07:26:20.420Z,7.60
2023-02-04T07:27:20.398Z,6.60
2023-02-04T07:28:20.364Z,7.40
2023-02-04T07:29:25.705Z,6.30
2023-02-04T07:30:20.316Z,6.30
2023-02-04T07:31:20.418Z,6.70
2023-02-04T07:32:20.267Z,7.50
2023-02-04T07:33:20.234Z,7.70
2023-02-04T07:34:20.209Z,7.50
2023-02-04T07:35:20.195Z,7.80
2023-02-04T07:36:20.168Z,6.40
2023-02-04T07:37:20.132Z,7.20
2023-02-04T07:38:20.097Z,6.90
2023-02-04T07:39:20.073Z,6.70
2023-02-04T07:40:20.050Z,6.90
2023-02-04T07:41:20.023Z,7.60
2023-02-04T07:42:19.994Z,7.20
2023-02-04T07:43:19.973Z,9.00
2023-02-04T07:44:19.967Z,7.50
2023-02-04T07:45:19.947Z,8.30
2023-02-04T07:46:19.907Z,7.70
2023-02-04T07:47:19.879Z,7.60
2023-02-04T07:48:19.836Z,8.20
2023-02-04T07:49:19.816Z,7.80
2023-02-04T07:50:19.786Z,7.80
2023-02-04T07:51:19.758Z,7.70
2023-02-04T07:52:19.727Z,8.60
2023-02-04T07:53:19.703Z,9.10
2023-02-04T07:54:19.694Z,8.10
2023-02-04T07:55:19.648Z,8.30
2023-02-04T07:56:19.619Z,9.50
2023-02-04T07:57:20.485Z,9.20
2023-02-04T07:58:19.566Z,9.00
2023-02-04T07:59:19.542Z,8.30
2023-02-04T08:00:19.513Z,8.50
2023-02-04T08:01:19.571Z,8.40
2023-02-04T08:02:19.470Z,8.70
2023-02-04T08:03:19.446Z,7.90
2023-02-04T08:04:19.406Z,8.80
2023-02-04T08:05:19.384Z,8.00
2023-02-04T08:06:19.365Z,7.80
2023-02-04T08:07:19.336Z,7.80
2023-02-04T08:08:19.309Z,9.20
2023-02-04T08:09:19.282Z,9.10
2023-02-04T08:10:19.254Z,10.50
2023-02-04T08:11:19.236Z,8.40
2023-02-04T08:12:19.194Z,8.50
2023-02-04T08:13:19.175Z,8.90
2023-02-04T08:14:19.147Z,8.10
2023-02-04T08:15:19.119Z,7.70
2023-02-04T08:16:19.145Z,8.20
2023-02-04T08:17:19.092Z,8.00
2023-02-04T08:18:19.040Z,7.50
2023-02-04T08:19:19.183Z,7.60
2023-02-04T08:20:18.982Z,8.30
2023-02-04T08:21:19.601Z,8.60
2023-02-04T08:22:18.946Z,7.90
2023-02-04T08:23:18.939Z,9.30
2023-02-04T08:24:18.888Z,8.10
2023-02-04T08:25:18.864Z,7.90
2023-02-04T08:26:18.827Z,7.50
2023-02-04T08:27:18.806Z,8.20
2023-02-04T08:28:18.826Z,9.00
2023-02-04T08:29:18.757Z,9.30
2023-02-04T08:30:18.723Z,9.20
2023-02-04T08:31:18.841Z,9.40
2023-02-04T08:32:18.668Z,10.30
2023-02-04T08:33:18.662Z,9.60
2023-02-04T08:34:18.621Z,8.70
2023-02-04T08:35:18.591Z,7.00
2023-02-04T08:36:18.579Z,6.10
2023-02-04T08:37:18.542Z,7.30
2023-02-04T08:38:18.516Z,6.60
2023-02-04T08:39:18.487Z,6.70
2023-02-04T08:40:20.187Z,6.60
2023-02-04T08:41:18.437Z,5.90
2023-02-04T08:42:18.405Z,5.60
2023-02-04T08:43:18.387Z,6.40
2023-02-04T08:44:18.354Z,7.00
2023-02-04T08:45:18.348Z,6.90
2023-02-04T08:46:18.371Z,7.10
2023-02-04T08:47:18.298Z,6.00
2023-02-04T08:48:18.265Z,5.90
2023-02-04T08:49:18.259Z,6.40
2023-02-04T08:50:18.274Z,5.40
2023-02-04T08:51:18.188Z,5.80
2023-02-04T08:52:18.158Z,6.20
2023-02-04T08:53:18.142Z,5.70
2023-02-04T08:54:18.111Z,6.20
2023-02-04T08:55:18.094Z,6.60
2023-02-04T08:56:18.075Z,5.00
2023-02-04T08:57:18.040Z,5.40
2023-02-04T08:58:18.022Z,5.30
2023-02-04T08:59:17.984Z,4.60
2023-02-04T09:00:17.958Z,4.60
2023-02-04T09:01:17.997Z,5.60
2023-02-04T09:02:18.002Z,6.20
2023-02-04T09:03:17.881Z,5.90
2023-02-04T09:04:17.858Z,5.50
2023-02-04T09:05:17.856Z,4.90
2023-02-04T09:06:17.802Z,5.40
2023-02-04T09:07:17.783Z,4.20
2023-02-04T09:08:17.748Z,5.10
2023-02-04T09:09:17.738Z,5.20
2023-02-04T09:10:17.699Z,4.90
2023-02-04T09:11:17.676Z,4.40
2023-02-04T09:12:17.652Z,4.70
2023-02-04T09:13:17.621Z,5.20
2023-02-04T09:14:17.597Z,4.00
2023-02-04T09:15:17.576Z,4.40
2023-02-04T09:16:17.570Z,4.60
2023-02-04T09:17:17.530Z,4.30
2023-02-04T09:18:17.494Z,4.30
2023-02-04T09:19:17.470Z,4.20
2023-02-04T09:20:17.450Z,4.00
2023-02-04T09:21:17.444Z,4.30
2023-02-04T09:22:17.393Z,4.50
2023-02-04T09:23:17.368Z,4.70
2023-02-04T09:24:17.339Z,3.70
2023-02-04T09:25:17.311Z,3.90
2023-02-04T09:26:17.288Z,4.40
2023-02-04T09:27:17.265Z,7.00
2023-02-04T09:28:17.440Z,7.10
2023-02-04T09:29:17.215Z,7.90
2023-02-04T09:30:17.186Z,4.90
2023-02-04T09:31:17.262Z,3.70
2023-02-04T09:32:17.132Z,4.20
2023-02-04T09:33:17.190Z,4.40
2023-02-04T09:34:17.092Z,4.50
2023-02-04T09:35:17.055Z,4.20
2023-02-04T09:36:17.028Z,3.50
2023-02-04T09:37:17.035Z,3.10
2023-02-04T09:38:16.981Z,3.50
2023-02-04T09:39:16.952Z,3.40
2023-02-04T09:40:16.919Z,3.30
2023-02-04T09:41:16.906Z,3.90
2023-02-04T09:42:16.872Z,4.00
2023-02-04T09:43:16.855Z,3.40
2023-02-04T09:44:16.833Z,3.40
2023-02-04T09:45:16.792Z,3.70
2023-02-04T09:46:16.822Z,3.80
2023-02-04T09:47:16.745Z,2.90
2023-02-04T09:48:16.712Z,3.10
2023-02-04T09:49:16.687Z,3.60
2023-02-04T09:50:16.659Z,3.30
2023-02-04T09:51:16.638Z,3.30
2023-02-04T09:52:16.616Z,2.90
2023-02-04T09:53:16.603Z,3.30
2023-02-04T09:54:16.555Z,3.30
2023-02-04T09:55:16.536Z,3.70
2023-02-04T09:56:16.501Z,2.80
2023-02-04T09:57:16.465Z,2.90
2023-02-04T09:58:16.439Z,3.30
2023-02-04T09:59:16.420Z,3.40
2023-02-04T10:00:16.381Z,2.90
2023-02-04T10:01:16.418Z,3.60
2023-02-04T10:02:16.332Z,3.70
2023-02-04T10:03:16.360Z,3.10
2023-02-04T10:04:16.273Z,3.70
2023-02-04T10:05:16.251Z,3.60
2023-02-04T10:06:16.218Z,3.40
2023-02-04T10:07:16.200Z,5.00
2023-02-04T10:08:16.165Z,3.60
2023-02-04T10:09:16.167Z,4.30
2023-02-04T10:10:16.117Z,3.40
2023-02-04T10:11:16.093Z,4.00
2023-02-04T10:12:16.077Z,4.00
2023-02-04T10:13:16.040Z,3.70
2023-02-04T10:14:16.012Z,4.00
2023-02-04T10:15:15.986Z,3.90
2023-02-04T10:16:16.019Z,3.30
2023-02-04T10:17:15.929Z,4.30
2023-02-04T10:18:15.904Z,3.60
2023-02-04T10:19:15.884Z,3.60
2023-02-04T10:20:15.851Z,3.40
2023-02-04T10:21:15.834Z,3.20
2023-02-04T10:22:15.802Z,3.50
2023-02-04T10:23:15.778Z,4.00
2023-02-04T10:24:15.760Z,3.70
2023-02-04T10:25:15.746Z,4.20
2023-02-04T10:26:15.694Z,3.80
2023-02-04T10:27:15.674Z,3.80
2023-02-04T10:28:15.768Z,4.00
2023-02-04T10:29:15.626Z,3.70
2023-02-04T10:30:15.601Z,3.60
2023-02-04T10:31:15.792Z,3.70
2023-02-04T10:32:15.554Z,3.90
2023-02-04T10:33:15.518Z,4.20
2023-02-04T10:34:17.527Z,4.50
2023-02-04T10:35:15.481Z,4.30
2023-02-04T10:36:15.446Z,4.10
2023-02-04T10:37:15.421Z,4.40
2023-02-04T10:38:15.388Z,4.60
2023-02-04T10:39:15.366Z,4.80
2023-02-04T10:40:15.337Z,4.90
2023-02-04T10:41:15.334Z,4.70
2023-02-04T10:42:15.286Z,4.90
2023-02-04T10:43:15.263Z,5.50
2023-02-04T10:44:15.239Z,4.40
2023-02-04T10:45:15.214Z,5.00
2023-02-04T10:46:15.233Z,5.80
2023-02-04T10:47:15.168Z,4.50
2023-02-04T10:48:15.129Z,4.80
2023-02-04T10:49:15.112Z,5.10
2023-02-04T10:50:15.078Z,3.90
2023-02-04T10:51:15.066Z,4.70
2023-02-04T10:52:15.031Z,4.40
2023-02-04T10:53:15.009Z,4.60
2023-02-04T10:54:14.978Z,4.20
2023-02-04T10:55:14.954Z,3.60
2023-02-04T10:56:14.931Z,4.60
2023-02-04T10:57:14.929Z,4.90
2023-02-04T10:58:14.878Z,5.20
2023-02-04T10:59:14.846Z,4.80
2023-02-04T11:00:14.834Z,5.80
2023-02-04T11:01:14.830Z,4.90
2023-02-04T11:02:14.783Z,4.70
2023-02-04T11:03:14.774Z,5.40
2023-02-04T11:04:14.725Z,4.80
2023-02-04T11:05:14.695Z,5.40
2023-02-04T11:06:14.680Z,4.40
2023-02-04T11:07:14.638Z,5.50
2023-02-04T11:08:14.619Z,5.40
2023-02-04T11:09:14.597Z,5.50
2023-02-04T11:10:14.566Z,6.00
2023-02-04T11:11:14.537Z,4.90
2023-02-04T11:12:14.514Z,4.80
2023-02-04T11:13:14.511Z,4.80
2023-02-04T11:14:14.466Z,4.30
2023-02-04T11:15:14.434Z,5.10
2023-02-04T11:16:14.476Z,5.20
2023-02-04T11:17:14.389Z,4.80
2023-02-04T11:18:14.365Z,4.60
2023-02-04T11:19:14.332Z,5.10
2023-02-04T11:20:14.313Z,5.80
2023-02-04T11:21:14.370Z,5.50
2023-02-04T11:22:14.259Z,5.20
2023-02-04T11:23:14.229Z,5.50
2023-02-04T11:24:14.218Z,5.70
2023-02-04T11:25:14.182Z,6.70
2023-02-04T11:26:14.168Z,6.20
2023-02-04T11:27:14.127Z,5.70
2023-02-04T11:28:14.211Z,5.10
2023-02-04T11:29:14.099Z,5.00
2023-02-04T11:30:14.055Z,5.10
2023-02-04T11:31:14.156Z,4.60
2023-02-04T11:32:14.002Z,4.70
2023-02-04T11:33:13.973Z,4.40
2023-02-04T11:34:13.952Z,5.10
2023-02-04T11:35:13.919Z,5.60
2023-02-04T11:36:13.904Z,6.00
2023-02-04T11:37:13.870Z,5.30
2023-02-04T11:38:13.847Z,5.80
2023-02-04T11:39:13.823Z,6.20
2023-02-04T11:40:13.794Z,5.90
2023-02-04T11:41:13.767Z,5.30
2023-02-04T11:42:13.742Z,5.10
2023-02-04T11:43:13.719Z,6.00
2023-02-04T11:44:13.691Z,5.90
2023-02-04T11:45:13.680Z,5.80
2023-02-04T11:46:13.833Z,5.60
2023-02-04T11:47:13.611Z,5.00
2023-02-04T11:48:13.585Z,6.00
2023-02-04T11:49:13.559Z,5.60
2023-02-04T11:50:14.259Z,5.40
2023-02-04T11:51:13.505Z,5.10
2023-02-04T11:52:13.487Z,5.20
2023-02-04T11:53:13.453Z,5.80
2023-02-04T11:54:13.437Z,5.10
2023-02-04T11:55:13.424Z,5.60
2023-02-04T11:56:13.383Z,4.70
2023-02-04T11:57:13.356Z,5.30
2023-02-04T11:58:13.335Z,4.90
2023-02-04T11:59:13.303Z,5.70
2023-02-04T12:00:13.285Z,5.20
2023-02-04T12:01:13.271Z,5.30
2023-02-04T12:02:14.782Z,5.80
2023-02-04T12:03:13.211Z,5.10
2023-02-04T12:04:13.180Z,5.30
2023-02-04T12:05:13.160Z,5.60
2023-02-04T12:06:13.128Z,5.40
2023-02-04T12:07:13.104Z,5.20
2023-02-04T12:08:13.081Z,5.30
2023-02-04T12:09:13.046Z,5.40
2023-02-04T12:10:13.154Z,5.60
2023-02-04T12:11:13.002Z,4.70
2023-02-04T12:12:12.976Z,5.00
2023-02-04T12:13:12.946Z,5.10
2023-02-04T12:14:12.931Z,5.80
2023-02-04T12:15:12.893Z,5.10
2023-02-04T12:16:12.888Z,5.70
2023-02-04T12:17:12.873Z,4.70
2023-02-04T12:18:12.827Z,4.80
2023-02-04T12:19:12.799Z,5.30
2023-02-04T12:20:12.890Z,5.80
2023-02-04T12:21:12.737Z,5.90
2023-02-04T12:22:12.724Z,4.80
2023-02-04T12:23:12.697Z,4.80
2023-02-04T12:24:12.671Z,5.10
2023-02-04T12:25:12.642Z,6.00
2023-02-04T12:26:12.629Z,5.60
2023-02-04T12:27:12.584Z,6.30
2023-02-04T12:28:12.640Z,5.10
2023-02-04T12:29:12.534Z,5.40
2023-02-04T12:30:12.673Z,5.50
2023-02-04T12:31:12.588Z,5.50
2023-02-04T12:32:12.555Z,5.10
2023-02-04T12:33:14.759Z,5.20
2023-02-04T12:34:12.412Z,5.20
2023-02-04T12:35:12.378Z,5.40
2023-02-04T12:36:12.357Z,5.40
2023-02-04T12:37:12.326Z,5.50
2023-02-04T12:38:12.305Z,4.70
2023-02-04T12:39:12.277Z,5.40
2023-02-04T12:40:12.293Z,5.40
2023-02-04T12:41:12.229Z,5.20
2023-02-04T12:42:12.212Z,5.50
2023-02-04T12:43:12.185Z,5.80
2023-02-04T12:44:12.151Z,5.80
2023-02-04T12:45:12.122Z,5.00
2023-02-04T12:46:12.131Z,6.20
2023-02-04T12:47:12.068Z,5.10
2023-02-04T12:48:12.107Z,4.80
2023-02-04T12:49:12.041Z,4.90
2023-02-04T12:50:12.062Z,5.40
2023-02-04T12:51:11.971Z,4.60
2023-02-04T12:52:11.942Z,5.20
2023-02-04T12:53:11.926Z,4.50
2023-02-04T12:54:11.893Z,4.70
2023-02-04T12:55:11.865Z,5.30
2023-02-04T12:56:11.844Z,6.60
2023-02-04T12:57:11.811Z,5.30
2023-02-04T12:58:11.791Z,5.20
2023-02-04T12:59:11.761Z,5.20
2023-02-04T13:00:11.785Z,5.10
2023-02-04T13:01:11.865Z,6.10
2023-02-04T13:02:11.702Z,5.60
2023-02-04T13:03:11.657Z,5.10
2023-02-04T13:04:11.637Z,5.70
2023-02-04T13:05:11.622Z,5.10
2023-02-04T13:06:11.580Z,5.60
2023-02-04T13:07:11.556Z,4.80
2023-02-04T13:08:11.549Z,5.00
2023-02-04T13:09:11.501Z,4.80
2023-02-04T13:10:11.581Z,4.70
2023-02-04T13:11:11.455Z,4.30
2023-02-04T13:12:11.433Z,4.70
2023-02-04T13:13:11.404Z,5.20
2023-02-04T13:14:11.377Z,4.60
2023-02-04T13:15:11.351Z,5.00
2023-02-04T13:16:11.351Z,4.60
2023-02-04T13:17:11.296Z,5.50
2023-02-04T13:18:11.276Z,5.20